Time;durP1;ratioP1;P1;durP2;ratioP2;P2;SDS_P1;SDS_P2;PMS_P1;PMS_P2;Temp;Humidity;BMP_temperature;BMP_pressure;BME280_temperature;BME280_humidity;BME280_pressure;Samples;Min_cycle;Max_cycle;Signal;HPM_P1;HPM_P2
2023/04/29 00:00:46;;;;;;;20.13;10.43;;;;;;;8.71;53.56;94679.75;4224099;28;20043;-62
2023/04/29 00:02:47;;;;;;;18.13;10.15;;;;;;;8.52;54.11;94696.34;4228981;28;20081;-62
2023/04/29 00:04:50;;;;;;;19.58;9.68;;;;;;;8.49;54.40;94685.38;4226365;28;20058;-61
2023/04/29 00:06:53;;;;;;;18.45;10.05;;;;;;;8.54;54.65;94683.13;4217044;28;20191;-60
2023/04/29 00:08:54;;;;;;;16.42;9.50;;;;;;;8.73;53.81;94685.66;4225849;28;20052;-60
2023/04/29 00:10:56;;;;;;;19.35;10.07;;;;;;;8.90;54.35;94681.38;4220534;28;20462;-60
2023/04/29 00:12:57;;;;;;;14.60;9.48;;;;;;;9.04;53.17;94689.69;4221662;28;20052;-61
2023/04/29 00:15:01;;;;;;;14.80;9.88;;;;;;;9.10;53.52;94689.06;4226659;28;20044;-60
2023/04/29 00:17:03;;;;;;;;;;;;;;;9.09;53.01;94697.88;4220282;28;20051;-60
2023/04/29 00:19:05;;;;;;;17.45;9.48;;;;;;;8.92;53.70;94692.50;4225376;28;19965;-61
2023/04/29 00:21:07;;;;;;;20.70;9.95;;;;;;;8.94;53.42;94695.78;4215995;28;20051;-60
2023/04/29 00:23:10;;;;;;;15.07;8.65;;;;;;;9.04;53.57;94695.72;4228456;27;20043;-62
2023/04/29 00:25:11;;;;;;;13.95;9.07;;;;;;;9.19;53.02;94691.59;4229315;28;20128;-59
2023/04/29 00:27:13;;;;;;;20.35;9.27;;;;;;;9.26;52.85;94698.84;4228367;28;20048;-61
2023/04/29 00:29:15;;;;;;;17.58;9.80;;;;;;;8.72;53.85;94702.28;4226979;28;20055;-60
2023/04/29 00:31:16;;;;;;;15.48;10.15;;;;;;;8.16;54.67;94709.28;4210507;28;20052;-63
2023/04/29 00:33:18;;;;;;;14.43;9.35;;;;;;;8.15;55.41;94697.19;4224427;28;20063;-60
2023/04/29 00:35:20;;;;;;;16.40;9.50;;;;;;;8.29;54.95;94695.88;4229395;28;20104;-61
2023/04/29 00:37:22;;;;;;;18.27;9.85;;;;;;;8.47;54.67;94695.13;4227100;28;20051;-60
2023/04/29 00:39:24;;;;;;;14.98;9.50;;;;;;;8.62;54.46;94696.28;4223014;28;20036;-59
2023/04/29 00:41:26;;;;;;;15.35;8.43;;;;;;;8.75;52.62;94685.47;4221003;28;20059;-60
2023/04/29 00:43:27;;;;;;;17.27;9.35;;;;;;;8.85;53.41;94688.84;4222173;28;20066;-59
2023/04/29 00:45:29;;;;;;;16.52;9.25;;;;;;;8.94;53.34;94685.34;4221059;28;20434;-59
2023/04/29 00:47:31;;;;;;;17.23;9.43;;;;;;;9.00;53.77;94689.97;4221325;28;20051;-56
2023/04/29 00:49:32;;;;;;;15.88;9.00;;;;;;;9.11;52.58;94695.94;4222604;28;20450;-57
2023/04/29 00:51:36;;;;;;;17.98;9.88;;;;;;;9.14;53.47;94688.63;4223964;28;20055;-60
2023/04/29 00:53:38;;;;;;;16.35;9.30;;;;;;;9.18;52.92;94687.38;4227248;28;20043;-60
2023/04/29 00:55:40;;;;;;;14.52;8.43;;;;;;;9.21;53.31;94678.41;4222018;28;20055;-59
2023/04/29 00:57:42;;;;;;;17.80;9.18;;;;;;;9.24;52.36;94675.47;4220445;28;20123;-59
2023/04/29 00:59:44;;;;;;;17.00;8.77;;;;;;;9.27;53.03;94675.19;4226213;28;20124;-60
2023/04/29 01:01:46;;;;;;;16.05;7.85;;;;;;;9.29;52.32;94668.00;4224048;28;20051;-60
2023/04/29 01:03:49;;;;;;;17.15;9.02;;;;;;;9.30;52.22;94668.81;4216104;28;20130;-60
2023/04/29 01:06:01;;;;;;;14.38;9.32;;;;;;;9.29;52.52;94664.56;4216831;28;20382;-58
2023/04/29 01:08:21;;;;;;;15.18;8.55;;;;;;;9.24;52.82;94665.00;4217905;28;20178;-60
2023/04/29 01:10:28;;;;;;;13.75;8.50;;;;;;;9.27;52.24;94661.28;4220344;28;20055;-61
2023/04/29 01:12:40;;;;;;;14.77;8.75;;;;;;;9.30;52.51;94651.34;4221683;28;20044;-58
2023/04/29 01:14:45;;;;;;;13.02;8.73;;;;;;;9.23;52.29;94653.75;4217754;28;20105;-57
2023/04/29 01:16:51;;;;;;;13.02;8.18;;;;;;;9.21;52.27;94653.06;4218888;28;20121;-60
2023/04/29 01:18:55;;;;;;;16.73;8.52;;;;;;;9.13;53.03;94649.56;4209841;28;20386;-59
2023/04/29 01:20:57;;;;;;;17.92;8.43;;;;;;;9.00;53.38;94642.94;4224124;28;20134;-58
2023/04/29 01:22:59;;;;;;;13.63;8.55;;;;;;;8.93;53.36;94641.91;4220505;28;20112;-60
2023/04/29 01:25:01;;;;;;;13.48;7.38;;;;;;;8.86;53.13;94647.88;4217622;28;20082;-60
2023/04/29 01:27:28;;;;;;;12.18;7.38;;;;;;;8.36;54.57;94655.19;4219293;28;20059;-60
2023/04/29 01:29:52;;;;;;;17.92;7.57;;;;;;;8.04;55.46;94653.00;4223954;28;20054;-61
2023/04/29 01:32:03;;;;;;;14.27;7.60;;;;;;;8.12;55.37;94653.13;4220387;28;20238;-61
2023/04/29 01:34:22;;;;;;;11.43;6.90;;;;;;;7.98;54.98;94654.44;4225670;28;20058;-60
2023/04/29 01:36:39;;;;;;;13.95;6.63;;;;;;;7.72;54.84;94653.41;4204287;28;20058;-62
2023/04/29 01:38:50;;;;;;;12.15;6.47;;;;;;;7.71;55.64;94651.78;4227421;28;20092;-60
2023/04/29 01:41:10;;;;;;;10.88;6.55;;;;;;;7.83;55.58;94655.03;4224073;28;20483;-60
2023/04/29 01:43:13;;;;;;;9.90;6.43;;;;;;;7.99;55.43;94657.84;4211814;28;20087;-60
2023/04/29 01:45:20;;;;;;;11.80;7.30;;;;;;;8.12;55.42;94650.50;4218425;28;20098;-61
2023/04/29 01:47:22;;;;;;;11.32;6.50;;;;;;;8.20;54.83;94650.59;4216215;28;20272;-61
2023/04/29 01:49:24;;;;;;;10.25;6.20;;;;;;;8.27;54.05;94650.03;4216498;28;20622;-60
2023/04/29 01:51:27;;;;;;;13.38;6.50;;;;;;;8.33;53.95;94652.06;4217562;28;20466;-60
2023/04/29 01:53:28;;;;;;;11.13;5.82;;;;;;;8.35;53.35;94650.13;4218460;28;20318;-59
2023/04/29 01:55:30;;;;;;;9.85;6.10;;;;;;;8.26;53.37;94650.97;4214806;28;20048;-60
2023/04/29 01:57:32;;;;;;;13.63;6.10;;;;;;;8.13;53.65;94652.16;4220175;28;20467;-60
2023/04/29 01:59:35;;;;;;;9.52;6.10;;;;;;;7.56;54.67;94646.22;4218104;28;20405;-60
2023/04/29 02:01:37;;;;;;;11.57;6.40;;;;;;;7.12;56.40;94653.69;4217947;28;20043;-61
2023/04/29 02:03:38;;;;;;;9.60;6.15;;;;;;;6.65;57.80;94656.19;4219791;28;20051;-60
2023/04/29 02:05:41;;;;;;;17.20;6.10;;;;;;;6.51;58.15;94666.03;4226580;28;20474;-60
2023/04/29 02:07:43;;;;;;;10.57;6.35;;;;;;;6.53;58.42;94658.91;4227018;28;20487;-60
2023/04/29 02:09:45;;;;;;;10.45;6.60;;;;;;;6.69;58.19;94662.75;4227561;27;20108;-60
2023/04/29 02:11:46;;;;;;;9.70;5.70;;;;;;;6.61;58.11;94666.03;4226557;28;20447;-59
2023/04/29 02:13:48;;;;;;;9.43;6.32;;;;;;;6.33;58.94;94662.44;4212052;28;20074;-59
2023/04/29 02:15:50;;;;;;;10.35;6.10;;;;;;;6.29;59.32;94669.69;4217603;28;20047;-60
2023/04/29 02:17:51;;;;;;;12.90;6.50;;;;;;;6.56;59.01;94656.03;4214331;28;20056;-61
2023/04/29 02:19:55;;;;;;;9.45;6.47;;;;;;;6.87;57.85;94655.91;4215173;28;20536;-59
2023/04/29 02:21:57;;;;;;;12.13;6.30;;;;;;;7.13;56.90;94652.75;4220077;28;20058;-60
2023/04/29 02:23:59;;;;;;;11.55;6.78;;;;;;;7.34;56.69;94644.75;4219115;28;20490;-60
2023/04/29 02:26:00;;;;;;;11.55;6.10;;;;;;;7.56;56.72;94652.25;4217762;28;20052;-59
2023/04/29 02:28:02;;;;;;;15.68;6.93;;;;;;;7.72;55.43;94646.44;4207610;28;20471;-59
2023/04/29 02:30:04;;;;;;;14.35;7.25;;;;;;;7.88;55.32;94656.25;4227965;27;20550;-59
2023/04/29 02:32:06;;;;;;;12.60;6.95;;;;;;;7.96;55.32;94647.72;4208536;28;20067;-61
2023/04/29 02:34:08;;;;;;;8.95;6.63;;;;;;;8.03;54.89;94654.00;4223831;28;20135;-58
2023/04/29 02:36:10;;;;;;;12.88;8.55;;;;;;;8.09;55.26;94650.00;4211812;28;20407;-60
2023/04/29 02:38:11;;;;;;;13.35;7.50;;;;;;;8.13;54.94;94649.56;4216523;28;20071;-60
2023/04/29 02:40:13;;;;;;;13.82;7.72;;;;;;;8.18;55.25;94649.13;4227875;28;20051;-61
2023/04/29 02:42:15;;;;;;;14.35;7.75;;;;;;;8.24;54.78;94647.69;4215709;28;20083;-61
2023/04/29 02:44:16;;;;;;;13.13;8.07;;;;;;;8.27;55.54;94644.81;4212334;28;20044;-61
2023/04/29 02:46:18;;;;;;;13.50;7.18;;;;;;;8.29;54.76;94648.09;4211833;28;20048;-61
2023/04/29 02:48:20;;;;;;;13.35;7.55;;;;;;;8.32;54.37;94640.78;4211300;28;20139;-60
2023/04/29 02:50:22;;;;;;;14.68;7.80;;;;;;;8.34;54.68;94656.28;4211862;28;20489;-59
2023/04/29 02:52:23;;;;;;;11.40;7.10;;;;;;;8.35;54.76;94652.75;4223194;28;20105;-60
2023/04/29 02:54:25;;;;;;;13.98;7.63;;;;;;;8.18;55.23;94657.75;4211412;28;20043;-60
2023/04/29 02:56:27;;;;;;;15.90;7.93;;;;;;;8.13;55.24;94654.78;4213056;28;20093;-61
2023/04/29 02:58:28;;;;;;;11.25;7.63;;;;;;;8.07;55.51;94670.19;4223438;28;20056;-60
2023/04/29 03:00:30;;;;;;;13.02;7.70;;;;;;;7.47;57.02;94680.94;4210473;28;20051;-61
2023/04/29 03:02:31;;;;;;;11.15;7.32;;;;;;;6.97;58.14;94682.78;4216082;28;20155;-59
2023/04/29 03:04:33;;;;;;;10.48;7.47;;;;;;;6.85;58.70;94677.84;4225510;28;20043;-60
2023/04/29 03:06:35;;;;;;;15.10;8.27;;;;;;;7.02;58.86;94665.94;4226273;28;20362;-60
2023/04/29 03:08:37;;;;;;;10.35;7.47;;;;;;;7.14;58.10;94670.84;4225758;28;20058;-59
2023/04/29 03:10:38;;;;;;;12.80;7.78;;;;;;;7.31;57.65;94665.88;4216900;28;20063;-60
2023/04/29 03:12:42;;;;;;;11.52;8.02;;;;;;;7.52;57.13;94668.31;4228061;28;20416;-59
2023/04/29 03:14:44;;;;;;;13.07;7.10;;;;;;;7.70;56.21;94671.00;4224903;28;20055;-61
2023/04/29 03:16:45;;;;;;;15.40;7.32;;;;;;;7.80;56.18;94670.00;4214597;28;20052;-60
2023/04/29 03:18:47;;;;;;;10.80;7.22;;;;;;;7.87;55.35;94670.28;4214209;28;21001;-61
2023/04/29 03:20:49;;;;;;;14.27;7.30;;;;;;;7.93;55.79;94669.69;4213900;28;20102;-59
2023/04/29 03:22:50;;;;;;;11.13;7.65;;;;;;;7.94;55.88;94666.13;4222418;28;20047;-61
2023/04/29 03:24:52;;;;;;;10.35;6.57;;;;;;;7.97;55.66;94673.63;4224063;28;20097;-59
2023/04/29 03:26:54;;;;;;;12.52;7.75;;;;;;;7.80;56.04;94680.44;4219685;28;20545;-61
2023/04/29 03:28:57;;;;;;;12.93;7.53;;;;;;;7.35;56.94;94693.31;4225448;28;20386;-59
2023/04/29 03:30:59;;;;;;;13.43;7.60;;;;;;;7.17;57.87;94693.19;4221431;28;20109;-59
2023/04/29 03:33:00;;;;;;;10.10;7.30;;;;;;;7.16;57.95;94701.94;4223339;28;20051;-60
2023/04/29 03:35:03;;;;;;;14.55;7.90;;;;;;;7.23;58.07;94692.66;4227111;28;20331;-61
2023/04/29 03:37:04;;;;;;;14.13;9.23;;;;;;;7.33;57.42;94697.81;4223494;28;20054;-61
2023/04/29 03:39:06;;;;;;;12.18;8.50;;;;;;;7.45;57.11;94696.72;4223916;28;20394;-59
2023/04/29 03:41:08;;;;;;;15.32;9.68;;;;;;;7.57;57.14;94702.59;4225125;28;20051;-60
2023/04/29 03:43:10;;;;;;;16.02;9.75;;;;;;;7.63;56.29;94701.22;4224550;28;20051;-59
2023/04/29 03:45:13;;;;;;;18.92;9.35;;;;;;;7.53;57.26;94698.63;4225698;28;20053;-60
2023/04/29 03:47:14;;;;;;;15.23;8.13;;;;;;;7.54;57.24;94697.66;4222855;28;20058;-60
2023/04/29 03:49:16;;;;;;;14.00;9.90;;;;;;;7.46;57.74;94689.72;4226160;28;20101;-60
2023/04/29 03:51:18;;;;;;;18.02;10.18;;;;;;;7.47;57.51;94694.81;4225071;28;20124;-61
2023/04/29 03:53:20;;;;;;;20.15;9.75;;;;;;;7.56;57.51;94685.31;4226157;28;20067;-60
2023/04/29 03:55:22;;;;;;;14.77;9.25;;;;;;;7.69;57.40;94685.81;4211518;28;20044;-58
2023/04/29 03:57:24;;;;;;;19.95;9.90;;;;;;;7.79;57.41;94689.22;4224925;28;20044;-59
2023/04/29 03:59:25;;;;;;;15.50;10.00;;;;;;;7.91;57.14;94692.47;4226735;28;20059;-60
2023/04/29 04:01:27;;;;;;;16.80;10.18;;;;;;;7.92;56.76;94696.75;4226806;28;20417;-61
2023/04/29 04:03:28;;;;;;;13.52;9.27;;;;;;;8.00;56.43;94685.56;4222560;28;20047;-62
2023/04/29 04:05:30;;;;;;;13.55;9.13;;;;;;;8.01;56.63;94692.44;4220221;28;20415;-61
2023/04/29 04:07:32;;;;;;;17.10;8.73;;;;;;;8.09;56.00;94686.53;4222664;28;20047;-61
2023/04/29 04:09:33;;;;;;;14.45;8.48;;;;;;;8.11;56.36;94695.84;4223584;28;20062;-62
2023/04/29 04:11:35;;;;;;;18.30;8.80;;;;;;;8.07;56.74;94696.28;4219848;28;20087;-60
2023/04/29 04:13:37;;;;;;;14.60;9.13;;;;;;;8.11;56.70;94703.66;4215621;28;20055;-62
2023/04/29 04:15:39;;;;;;;17.25;8.38;;;;;;;8.19;56.86;94698.56;4207700;28;20059;-60
2023/04/29 04:17:41;;;;;;;14.00;8.18;;;;;;;8.33;56.31;94699.84;4212915;28;20544;-60
2023/04/29 04:19:42;;;;;;;16.40;7.95;;;;;;;8.46;56.27;94699.53;4213308;28;20047;-61
2023/04/29 04:21:44;;;;;;;16.27;8.57;;;;;;;8.57;55.62;94699.34;4222609;28;20169;-61
2023/04/29 04:23:46;;;;;;;18.63;8.30;;;;;;;8.55;55.11;94696.06;4228045;28;20040;-62
2023/04/29 04:25:48;;;;;;;14.45;8.77;;;;;;;8.57;54.79;94690.69;4227454;28;20044;-62
2023/04/29 04:27:49;;;;;;;16.85;8.63;;;;;;;8.60;54.97;94698.22;4223043;28;20116;-62
2023/04/29 04:29:54;;;;;;;15.90;8.65;;;;;;;8.60;54.15;94693.00;4226849;28;20469;-62
2023/04/29 04:31:56;;;;;;;18.98;9.07;;;;;;;8.63;54.21;94686.69;4220475;28;20047;-62
2023/04/29 04:33:58;;;;;;;13.18;9.23;;;;;;;8.68;54.27;94694.88;4223444;28;20047;-61
2023/04/29 04:36:00;;;;;;;18.30;9.25;;;;;;;8.64;54.35;94696.13;4208876;28;20052;-63
2023/04/29 04:38:02;;;;;;;13.55;9.18;;;;;;;8.31;54.84;94695.75;4214302;28;20047;-62
2023/04/29 04:40:04;;;;;;;15.27;9.20;;;;;;;7.72;56.59;94702.97;4223641;28;20474;-61
2023/04/29 04:42:06;;;;;;;16.42;10.20;;;;;;;7.50;57.61;94704.94;4221612;28;20078;-61
2023/04/29 04:44:07;;;;;;;17.92;10.00;;;;;;;7.50;57.56;94706.72;4221533;28;20121;-61
2023/04/29 04:46:13;;;;;;;18.90;10.02;;;;;;;7.51;57.84;94705.78;4222047;28;20061;-61
2023/04/29 04:48:15;;;;;;;18.38;11.00;;;;;;;7.45;57.69;94716.75;4228898;28;20079;-61
2023/04/29 04:50:17;;;;;;;27.30;11.15;;;;;;;7.54;57.69;94718.53;4230166;28;20590;-62
2023/04/29 04:52:20;;;;;;;17.73;10.60;;;;;;;7.28;58.24;94719.09;4228264;28;21439;-61
2023/04/29 04:54:21;;;;;;;17.50;11.02;;;;;;;7.14;58.40;94711.69;4226807;28;20074;-61
2023/04/29 04:56:23;;;;;;;21.25;10.45;;;;;;;7.21;58.41;94702.38;4216950;28;20491;-60
2023/04/29 04:58:25;;;;;;;19.73;10.70;;;;;;;7.42;58.43;94696.16;4225712;28;20044;-61
2023/04/29 05:00:27;;;;;;;25.73;10.50;;;;;;;7.65;58.10;94691.47;4225215;28;20263;-62
2023/04/29 05:02:28;;;;;;;14.80;9.93;;;;;;;7.89;57.33;94693.59;4222545;28;20451;-60
2023/04/29 05:04:30;;;;;;;16.13;9.68;;;;;;;8.17;56.66;94695.28;4221751;28;20048;-59
2023/04/29 05:06:32;;;;;;;24.48;10.60;;;;;;;8.35;55.98;94689.28;4229488;28;20090;-61
2023/04/29 05:08:34;;;;;;;16.58;9.73;;;;;;;8.48;56.28;94684.56;4227157;28;20059;-59
2023/04/29 05:10:36;;;;;;;22.10;10.98;;;;;;;8.65;55.56;94682.09;4229527;28;20048;-60
2023/04/29 05:12:37;;;;;;;19.83;10.68;;;;;;;8.80;55.49;94675.44;4229026;28;20067;-61
2023/04/29 05:14:39;;;;;;;19.58;10.52;;;;;;;8.88;54.50;94679.88;4227318;28;20047;-61
2023/04/29 05:16:42;;;;;;;20.67;10.38;;;;;;;8.52;54.91;94670.25;4217843;28;20543;-61
2023/04/29 05:18:45;;;;;;;16.60;9.63;;;;;;;8.36;55.79;94670.84;4221337;28;20474;-61
2023/04/29 05:20:47;;;;;;;13.85;9.23;;;;;;;8.51;55.96;94668.59;4215950;28;20272;-60
2023/04/29 05:22:48;;;;;;;15.55;9.63;;;;;;;8.69;56.01;94667.78;4213965;28;20182;-63
2023/04/29 05:24:51;;;;;;;14.88;9.45;;;;;;;8.88;54.92;94662.41;4220228;28;20540;-59
2023/04/29 05:26:53;;;;;;;14.18;8.55;;;;;;;9.06;54.68;94670.25;4222996;28;20067;-60
2023/04/29 05:28:55;;;;;;;11.88;7.57;;;;;;;9.20;54.13;94664.47;4222552;28;20104;-60
2023/04/29 05:30:56;;;;;;;12.48;7.38;;;;;;;9.31;53.09;94660.81;4219112;27;20048;-59
2023/04/29 05:32:58;;;;;;;13.63;8.15;;;;;;;9.40;53.16;94664.34;4214279;28;20101;-60
2023/04/29 05:35:00;;;;;;;12.30;7.22;;;;;;;9.11;52.95;94667.19;4227262;27;20055;-61
2023/04/29 05:37:02;;;;;;;10.32;7.15;;;;;;;8.95;53.07;94662.66;4226269;28;20409;-62
2023/04/29 05:39:03;;;;;;;10.45;6.72;;;;;;;8.89;54.24;94668.47;4225354;28;20489;-62
2023/04/29 05:41:05;;;;;;;11.93;8.05;;;;;;;8.85;54.02;94654.88;4227124;28;20059;-60
2023/04/29 05:43:06;;;;;;;10.85;7.35;;;;;;;8.93;54.07;94662.00;4226452;28;20138;-62
2023/04/29 05:45:09;;;;;;;14.20;7.72;;;;;;;9.07;54.52;94663.25;4217720;28;20486;-62
2023/04/29 05:47:10;;;;;;;11.82;6.65;;;;;;;9.33;53.16;94664.09;4221993;28;20051;-60
2023/04/29 05:49:12;;;;;;;10.73;6.57;;;;;;;9.52;52.97;94657.84;4223359;28;20127;-62
2023/04/29 05:51:14;;;;;;;12.48;6.85;;;;;;;9.65;52.28;94665.28;4218486;28;20043;-62
2023/04/29 05:53:16;;;;;;;14.27;7.32;;;;;;;9.79;52.25;94664.75;4225948;28;20048;-61
2023/04/29 05:55:18;;;;;;;19.90;10.88;;;;;;;9.01;53.78;94675.09;4215033;28;20048;-62
2023/04/29 05:57:20;;;;;;;18.05;10.18;;;;;;;8.55;54.85;94677.78;4226430;28;20046;-61
2023/04/29 05:59:21;;;;;;;21.45;10.32;;;;;;;8.22;57.33;94679.19;4219758;28;20049;-62
2023/04/29 06:01:23;;;;;;;13.38;8.80;;;;;;;8.16;57.26;94674.53;4213439;28;20061;-60
2023/04/29 06:03:25;;;;;;;16.65;10.45;;;;;;;8.47;56.83;94676.88;4213957;28;20068;-61
2023/04/29 06:05:27;;;;;;;15.35;10.27;;;;;;;8.84;55.26;94673.31;4225120;28;20378;-60
2023/04/29 06:07:29;;;;;;;17.17;10.30;;;;;;;9.10;54.42;94674.22;4203944;28;20121;-60
2023/04/29 06:09:32;;;;;;;18.85;10.32;;;;;;;9.06;54.93;94669.47;4221113;28;20044;-62
2023/04/29 06:11:33;;;;;;;17.05;10.30;;;;;;;8.96;53.81;94667.72;4225493;28;20103;-60
2023/04/29 06:13:35;;;;;;;24.83;10.80;;;;;;;9.11;53.97;94668.00;4223143;28;20052;-63
2023/04/29 06:15:37;;;;;;;20.13;9.07;;;;;;;9.19;53.60;94657.63;4225867;28;20546;-64
2023/04/29 06:17:39;;;;;;;16.52;8.82;;;;;;;9.34;53.68;94663.13;4217907;28;20098;-63
2023/04/29 06:19:40;;;;;;;13.93;9.10;;;;;;;9.43;53.03;94662.22;4223133;28;20074;-62
2023/04/29 06:21:42;;;;;;;19.45;8.57;;;;;;;9.42;52.59;94662.34;4220835;28;20056;-62
2023/04/29 06:23:44;;;;;;;11.45;8.50;;;;;;;9.25;53.18;94665.81;4220169;28;20532;-68
2023/04/29 06:25:45;;;;;;;18.10;10.00;;;;;;;8.91;54.08;94666.53;4228095;28;20104;-62
2023/04/29 06:27:48;;;;;;;15.80;9.18;;;;;;;9.10;54.00;94668.16;4227217;28;20079;-63
2023/04/29 06:29:49;;;;;;;16.77;10.57;;;;;;;9.25;53.79;94671.91;4227388;28;20047;-63
2023/04/29 06:31:52;;;;;;;15.88;10.45;;;;;;;9.42;52.97;94663.19;4223482;28;20131;-62
2023/04/29 06:33:55;;;;;;;16.63;10.45;;;;;;;9.72;52.79;94661.09;4227926;28;20067;-63
2023/04/29 06:35:57;;;;;;;16.52;10.00;;;;;;;9.65;52.98;94673.13;4227003;28;20101;-63
2023/04/29 06:37:58;;;;;;;20.20;10.38;;;;;;;9.62;52.56;94669.03;4226997;28;20579;-62
2023/04/29 06:40:00;;;;;;;16.27;8.98;;;;;;;9.75;52.04;94671.25;4228503;28;20511;-62
2023/04/29 06:42:02;;;;;;;17.08;9.90;;;;;;;10.04;51.84;94670.09;4227460;28;20055;-61
2023/04/29 06:44:04;;;;;;;20.58;11.20;;;;;;;10.26;50.84;94666.13;4218937;28;20048;-62
2023/04/29 06:46:06;;;;;;;17.20;10.98;;;;;;;10.55;50.77;94654.44;4215464;28;20449;-63
2023/04/29 06:48:07;;;;;;;20.83;11.75;;;;;;;10.81;49.94;94657.75;4226841;28;20044;-65
2023/04/29 06:50:09;;;;;;;20.88;11.27;;;;;;;11.03;49.53;94658.97;4216669;28;20059;-63
2023/04/29 06:52:11;;;;;;;16.88;10.85;;;;;;;11.33;48.71;94664.50;4211640;28;20048;-62
2023/04/29 06:54:13;;;;;;;19.33;10.60;;;;;;;11.52;48.21;94652.06;4217785;28;20541;-64
2023/04/29 06:56:14;;;;;;;19.90;10.80;;;;;;;11.39;48.07;94656.00;4219579;28;20044;-63
2023/04/29 06:58:18;;;;;;;16.10;9.97;;;;;;;11.48;48.24;94652.38;4223616;28;20481;-62
2023/04/29 07:00:21;;;;;;;15.00;10.05;;;;;;;11.56;47.75;94654.19;4212692;28;20151;-63
2023/04/29 07:02:23;;;;;;;16.77;9.65;;;;;;;11.83;47.34;94649.53;4216650;28;20067;-64
2023/04/29 07:04:24;;;;;;;14.43;9.98;;;;;;;11.43;47.79;94646.81;4219536;28;20047;-63
2023/04/29 07:06:26;;;;;;;16.60;9.10;;;;;;;11.48;47.47;94651.56;4224734;28;20086;-62
2023/04/29 07:08:28;;;;;;;19.08;8.85;;;;;;;11.61;47.56;94644.00;4222948;28;20047;-61
2023/04/29 07:10:29;;;;;;;14.05;8.30;;;;;;;11.74;47.41;94643.47;4212696;28;20120;-62
2023/04/29 07:12:31;;;;;;;17.70;8.95;;;;;;;11.87;47.02;94646.41;4223092;28;20126;-64
2023/04/29 07:14:33;;;;;;;13.98;8.18;;;;;;;11.84;46.65;94640.69;4225597;28;20039;-61
2023/04/29 07:16:34;;;;;;;16.02;8.18;;;;;;;11.93;46.50;94634.44;4215425;28;20078;-62
2023/04/29 07:18:36;;;;;;;15.82;8.60;;;;;;;11.83;46.20;94633.78;4214028;28;20055;-63
2023/04/29 07:20:38;;;;;;;18.92;8.60;;;;;;;11.74;46.43;94645.28;4214133;28;20143;-61
2023/04/29 07:22:39;;;;;;;18.20;8.90;;;;;;;11.77;46.48;94643.16;4218654;28;20470;-62
2023/04/29 07:24:41;;;;;;;12.68;8.35;;;;;;;12.04;46.43;94643.75;4222324;28;20130;-61
2023/04/29 07:26:46;;;;;;;15.52;9.23;;;;;;;12.37;45.56;94641.00;4222246;28;20039;-62
2023/04/29 07:28:51;;;;;;;15.27;9.10;;;;;;;12.50;45.73;94647.34;4222197;28;20086;-62
2023/04/29 07:30:52;;;;;;;19.05;10.57;;;;;;;12.65;44.75;94644.00;4222847;28;20086;-61
2023/04/29 07:32:54;;;;;;;17.25;10.55;;;;;;;12.19;45.69;94649.94;4220882;28;20048;-63
2023/04/29 07:34:56;;;;;;;20.70;10.30;;;;;;;12.26;45.65;94643.03;4224198;28;20486;-63
2023/04/29 07:36:57;;;;;;;17.08;9.80;;;;;;;12.53;44.89;94634.88;4214623;28;20080;-61
2023/04/29 07:38:59;;;;;;;16.20;10.48;;;;;;;12.52;45.01;94636.69;4220568;28;20521;-63
2023/04/29 07:41:02;;;;;;;19.05;9.02;;;;;;;12.63;44.83;94638.09;4222485;28;20521;-60
2023/04/29 07:43:05;;;;;;;15.27;9.98;;;;;;;12.85;44.25;94636.47;4223864;28;20127;-62
2023/04/29 07:45:07;;;;;;;16.55;9.57;;;;;;;13.16;43.72;94631.16;4223804;28;20416;-62
2023/04/29 07:47:09;;;;;;;16.02;9.50;;;;;;;13.41;43.25;94631.81;4218885;28;20047;-62
2023/04/29 07:49:11;;;;;;;13.13;7.72;;;;;;;13.43;42.37;94631.63;4222797;28;20048;-63
2023/04/29 07:51:13;;;;;;;12.05;7.82;;;;;;;13.54;42.40;94633.81;4222674;28;20442;-64
2023/04/29 07:53:16;;;;;;;14.15;8.43;;;;;;;13.59;41.81;94630.66;4225167;28;20051;-63
2023/04/29 07:55:17;;;;;;;27.65;13.00;;;;;;;13.55;41.52;94624.94;4221115;28;20569;-64
2023/04/29 07:57:19;;;;;;;13.82;8.60;;;;;;;13.72;42.13;94620.31;4224909;28;20069;-64
2023/04/29 07:59:21;;;;;;;11.77;7.60;;;;;;;13.93;41.11;94620.41;4223609;28;20134;-62
2023/04/29 08:01:22;;;;;;;14.77;6.53;;;;;;;13.89;40.91;94613.88;4222045;28;20127;-63
2023/04/29 08:03:25;;;;;;;10.57;6.43;;;;;;;13.55;40.54;94613.59;4219544;28;20083;-63
2023/04/29 08:05:29;;;;;;;;;;;;;;;13.79;40.69;94612.50;4222010;28;20048;-62
2023/04/29 08:07:31;;;;;;;13.90;6.78;;;;;;;13.67;41.20;94610.34;4225821;28;20312;-60
2023/04/29 08:09:33;;;;;;;13.07;7.28;;;;;;;13.45;41.80;94619.13;4224379;28;20134;-62
2023/04/29 08:11:34;;;;;;;12.55;7.10;;;;;;;13.09;42.58;94615.25;4215504;28;20067;-60
2023/04/29 08:13:36;;;;;;;16.00;7.18;;;;;;;13.47;42.71;94617.94;4223275;28;20094;-62
2023/04/29 08:15:38;;;;;;;60.08;39.95;;;;;;;13.81;41.95;94615.78;4204025;28;20218;-61
2023/04/29 08:17:39;;;;;;;15.55;8.73;;;;;;;14.13;41.61;94617.25;4213089;28;20121;-64
2023/04/29 08:19:41;;;;;;;10.02;6.97;;;;;;;14.36;40.20;94609.22;4211112;28;20048;-62
2023/04/29 08:21:43;;;;;;;11.65;6.97;;;;;;;14.72;39.84;94604.00;4216252;28;20422;-62
2023/04/29 08:23:45;;;;;;;11.05;7.03;;;;;;;14.69;40.00;94603.53;4231323;28;20040;-63
2023/04/29 08:25:46;;;;;;;11.00;7.18;;;;;;;14.95;39.27;94606.47;4230179;28;20117;-60
2023/04/29 08:27:48;;;;;;;16.13;7.82;;;;;;;14.79;39.18;94600.59;4227235;27;20052;-61
2023/04/29 08:29:50;;;;;;;10.75;7.70;;;;;;;14.89;39.00;94604.56;4228413;28;20097;-61
2023/04/29 08:31:52;;;;;;;12.73;6.70;;;;;;;15.10;39.27;94600.28;4216017;28;20048;-62
2023/04/29 08:33:54;;;;;;;12.90;7.03;;;;;;;15.02;38.60;94603.88;4223396;28;20059;-61
2023/04/29 08:36:02;;;;;;;10.65;6.72;;;;;;;15.22;38.64;94606.69;4226401;28;20074;-62
2023/04/29 08:38:05;;;;;;;10.38;6.47;;;;;;;15.42;38.46;94596.28;4209733;28;20434;-62
2023/04/29 08:40:07;;;;;;;9.75;6.53;;;;;;;15.67;38.56;94595.88;4226069;28;20055;-63
2023/04/29 08:42:09;;;;;;;21.42;7.10;;;;;;;15.59;38.85;94596.03;4224413;28;20045;-62
2023/04/29 08:44:11;;;;;;;13.85;6.55;;;;;;;15.63;38.07;94597.28;4225952;28;20134;-62
2023/04/29 08:46:13;;;;;;;8.63;6.93;;;;;;;15.74;37.85;94589.69;4226687;28;20043;-62
2023/04/29 08:48:16;;;;;;;13.65;6.97;;;;;;;15.96;37.41;94587.75;4217042;28;20052;-65
2023/04/29 08:50:18;;;;;;;11.38;6.53;;;;;;;16.26;37.11;94590.16;4215521;28;20486;-62
2023/04/29 08:52:20;;;;;;;8.40;6.57;;;;;;;16.50;36.61;94585.38;4227358;28;20044;-63
2023/04/29 08:54:21;;;;;;;10.05;6.13;;;;;;;16.45;35.45;94577.19;4228441;28;20830;-64
2023/04/29 08:56:23;;;;;;;13.13;6.53;;;;;;;16.26;35.78;94576.94;4228007;28;20117;-62
2023/04/29 08:58:27;;;;;;;12.07;7.30;;;;;;;15.35;37.14;94584.88;4222767;28;20047;-62
2023/04/29 09:00:31;;;;;;;12.63;6.55;;;;;;;15.04;37.55;94588.69;4224919;28;20070;-63
2023/04/29 09:02:34;;;;;;;9.38;6.43;;;;;;;14.91;37.68;94588.56;4224838;28;20048;-66
2023/04/29 09:04:49;;;;;;;10.60;6.45;;;;;;;14.69;37.74;94583.28;4224684;28;20142;-62
2023/04/29 09:06:52;;;;;;;9.35;6.03;;;;;;;14.84;37.83;94583.22;4209422;28;20076;-62
2023/04/29 09:08:54;;;;;;;9.10;6.07;;;;;;;15.06;37.54;94581.41;4217353;28;20142;-65
2023/04/29 09:10:56;;;;;;;10.55;7.03;;;;;;;15.41;37.38;94570.09;4219549;28;20052;-64
2023/04/29 09:12:58;;;;;;;10.55;6.65;;;;;;;15.66;36.68;94575.75;4224021;28;20050;-62
2023/04/29 09:15:36;;;;;;;8.63;5.78;;;;;;;16.00;36.26;94572.31;4226373;28;20142;-63
2023/04/29 09:20:54;;;;;;;9.52;6.15;;;;;;;16.70;35.77;94569.56;4206457;28;20097;-63
2023/04/29 09:23:02;;;;;;;7.97;5.72;;;;;;;16.78;35.22;94562.25;4220148;28;20102;-63
2023/04/29 09:25:13;;;;;;;8.82;5.90;;;;;;;16.37;34.99;94565.78;4223672;28;20052;-64
2023/04/29 09:27:30;;;;;;;13.68;6.78;;;;;;;16.25;35.23;94564.72;4221507;28;20048;-63
2023/04/29 09:29:33;;;;;;;12.60;6.38;;;;;;;15.79;36.22;94567.97;4222183;28;20055;-62
2023/04/29 09:31:36;;;;;;;9.77;6.25;;;;;;;15.00;36.78;94568.97;4214443;28;20097;-63
2023/04/29 09:33:55;;;;;;;10.60;7.10;;;;;;;14.82;37.30;94563.31;4219828;28;20051;-62
2023/04/29 09:35:57;;;;;;;11.57;6.50;;;;;;;14.92;37.63;94555.91;4221569;28;20135;-60
2023/04/29 09:38:15;;;;;;;14.48;6.43;;;;;;;14.90;37.21;94548.16;4222441;28;20043;-60
2023/04/29 09:40:30;;;;;;;13.88;6.70;;;;;;;14.78;37.25;94557.59;4220928;28;20047;-61